Time,TemperatureF,DewpointF,PressureIn,WindDirection,WindDirectionDegrees,WindSpeedMPH,WindSpeedGustMPH,Humidity,HourlyPrecipIn,Conditions,Clouds,dailyrainin,SoftwareType,DateUTC
2013-02-23 12:40:00,35.6,30.0,29.90,South,179,1.0,2.0,80,0.00,,,0.04,Wunderground v.1.15,2013-02-23 17:40:00,
2013-02-23 12:45:00,35.8,30.2,29.89,South,178,2.0,2.0,80,0.00,,,0.04,Wunderground v.1.15,2013-02-23 17:45:00,
2013-02-23 12:50:00,36.0,30.4,29.89,SSE,150,2.0,6.0,80,0.00,,,0.04,Wunderground v.1.15,2013-02-23 17:50:00,
2013-02-23 13:00:00,36.5,30.9,29.89,SSE,149,3.0,5.0,80,0.00,,,0.05,Wunderground v.1.15,2013-02-23 18:00:00,
2013-02-23 13:04:00,36.7,30.8,29.89,South,190,2.0,5.0,79,0.00,,,0.05,Wunderground v.1.15,2013-02-23 18:04:00,
2013-02-23 13:10:00,36.9,31.0,29.88,South,178,2.0,2.0,79,0.00,,,0.05,Wunderground v.1.15,2013-02-23 18:10:00,
2013-02-23 13:15:00,37.0,31.1,29.88,South,185,2.0,2.0,79,0.00,,,0.05,Wunderground v.1.15,2013-02-23 18:15:00,
2013-02-23 13:20:00,37.1,30.9,29.88,South,169,2.0,2.0,78,0.00,,,0.05,Wunderground v.1.15,2013-02-23 18:20:00,
2013-02-23 13:25:00,37.1,30.9,29.88,SSE,161,2.0,2.0,78,0.00,,,0.05,Wunderground v.1.15,2013-02-23 18:25:00,
2013-02-23 13:30:00,37.0,30.8,29.88,SSW,202,2.0,2.0,78,0.00,,,0.06,Wunderground v.1.15,2013-02-23 18:30:00,
2013-02-23 13:39:00,37.1,30.9,29.87,SSW,196,2.0,8.0,78,0.00,,,0.06,Wunderground v.1.15,2013-02-23 18:39:00,
2013-02-23 13:45:00,37.1,30.9,29.87,SSE,158,2.0,8.0,78,0.00,,,0.06,Wunderground v.1.15,2013-02-23 18:45:00,
2013-02-23 13:50:00,37.2,31.0,29.86,SSE,161,3.0,3.0,78,0.00,,,0.06,Wunderground v.1.15,2013-02-23 18:50:00,
2013-02-23 13:55:00,37.4,31.2,29.87,SSE,162,2.0,8.0,78,0.00,,,0.06,Wunderground v.1.15,2013-02-23 18:55:00,
2013-02-23 14:00:00,37.4,31.2,29.86,South,174,2.0,8.0,78,0.00,,,0.06,Wunderground v.1.15,2013-02-23 19:00:00,
2013-02-23 14:05:00,37.3,31.1,29.86,South,176,3.0,8.0,78,0.00,,,0.06,Wunderground v.1.15,2013-02-23 19:05:00,
2013-02-23 14:15:00,37.3,31.1,29.86,South,169,2.0,8.0,78,0.00,,,0.06,Wunderground v.1.15,2013-02-23 19:15:00,
2013-02-23 14:25:00,37.4,31.2,29.86,SSE,161,2.0,8.0,78,0.00,,,0.06,Wunderground v.1.15,2013-02-23 19:25:00,
2013-02-23 14:30:00,37.5,31.3,29.86,SSE,162,1.0,8.0,78,0.00,,,0.06,Wunderground v.1.15,2013-02-23 19:30:00,
2013-02-23 14:35:00,37.4,31.2,29.86,SSW,212,2.0,8.0,78,0.00,,,0.06,Wunderground v.1.15,2013-02-23 19:35:00,
2013-02-23 14:40:00,37.4,31.2,29.86,SSW,199,1.0,8.0,78,0.00,,,0.06,Wunderground v.1.15,2013-02-23 19:40:00,
2013-02-23 14:45:00,37.5,31.3,29.85,SSE,166,1.0,8.0,78,0.00,,,0.06,Wunderground v.1.15,2013-02-23 19:45:00,
2013-02-23 14:50:00,37.5,31.3,29.85,South,173,1.0,8.0,78,0.00,,,0.06,Wunderground v.1.15,2013-02-23 19:50:00,
2013-02-23 14:55:00,37.6,31.4,29.85,SSW,203,1.0,8.0,78,0.00,,,0.06,Wunderground v.1.15,2013-02-23 19:55:00,
2013-02-23 15:05:00,37.7,31.5,29.85,SSW,200,1.0,8.0,78,0.00,,,0.06,Wunderground v.1.15,2013-02-23 20:05:00,
2013-02-23 15:10:00,37.6,31.4,29.85,SSE,167,1.0,1.0,78,0.00,,,0.06,Wunderground v.1.15,2013-02-23 20:10:00,
2013-02-23 15:15:00,37.5,31.3,29.86,SSE,167,1.0,8.0,78,0.00,,,0.06,Wunderground v.1.15,2013-02-23 20:15:00,
2013-02-23 15:20:00,37.4,31.2,29.86,SSE,167,1.0,1.0,78,0.00,,,0.06,Wunderground v.1.15,2013-02-23 20:20:00,
2013-02-23 15:25:00,37.4,31.2,29.86,SSW,199,1.0,8.0,78,0.00,,,0.06,Wunderground v.1.15,2013-02-23 20:25:00,
2013-02-23 15:30:00,37.3,31.4,29.86,SSE,155,1.0,1.0,79,0.00,,,0.06,Wunderground v.1.15,2013-02-23 20:30:00,
2013-02-23 15:40:00,37.3,31.4,29.85,SSE,167,0.0,8.0,79,0.00,,,0.06,Wunderground v.1.15,2013-02-23 20:40:00,
2013-02-23 15:45:00,37.2,31.3,29.85,SSE,168,0.0,8.0,79,0.00,,,0.06,Wunderground v.1.15,2013-02-23 20:45:00,
2013-02-23 15:50:00,37.2,31.3,29.85,South,169,0.0,8.0,79,0.00,,,0.06,Wunderground v.1.15,2013-02-23 20:50:00,
2013-02-23 15:55:00,36.8,30.6,29.86,West,259,1.0,8.0,78,0.00,,,0.06,Wunderground v.1.15,2013-02-23 20:55:00,
2013-02-23 16:00:00,36.3,29.8,29.86,WNW,297,2.0,2.0,77,0.00,,,0.06,Wunderground v.1.15,2013-02-23 21:00:00,
2013-02-23 16:05:00,35.9,29.4,29.86,WSW,257,1.0,8.0,77,0.00,,,0.06,Wunderground v.1.15,2013-02-23 21:05:00,
2013-02-23 16:10:00,35.6,29.1,29.86,West,261,1.0,8.0,77,0.00,,,0.06,Wunderground v.1.15,2013-02-23 21:10:00,
2013-02-23 16:20:00,35.2,29.0,29.86,West,276,2.0,2.0,78,0.00,,,0.06,Wunderground v.1.15,2013-02-23 21:20:00,
2013-02-23 16:25:00,35.0,28.8,29.86,West,275,1.0,8.0,78,0.00,,,0.06,Wunderground v.1.15,2013-02-23 21:25:00,
2013-02-23 16:35:00,34.4,28.2,29.86,West,261,1.0,8.0,78,0.00,,,0.06,Wunderground v.1.15,2013-02-23 21:35:00,
2013-02-23 16:40:00,34.4,28.6,29.87,WSW,242,1.0,8.0,79,0.00,,,0.06,Wunderground v.1.15,2013-02-23 21:40:00,
2013-02-23 16:45:00,34.2,28.4,29.86,West,279,2.0,8.0,79,0.00,,,0.06,Wunderground v.1.15,2013-02-23 21:45:00,
2013-02-23 16:50:00,34.1,28.3,29.87,West,267,2.0,8.0,79,0.00,,,0.06,Wunderground v.1.15,2013-02-23 21:50:00,
2013-02-23 17:00:00,33.8,28.0,29.87,West,265,1.0,8.0,79,0.00,,,0.06,Wunderground v.1.15,2013-02-23 22:00:00,
2013-02-23 17:05:00,33.6,28.1,29.87,West,270,2.0,8.0,80,0.00,,,0.06,Wunderground v.1.15,2013-02-23 22:05:00,
2013-02-23 17:10:00,33.5,28.0,29.86,West,269,1.0,1.0,80,0.00,,,0.06,Wunderground v.1.15,2013-02-23 22:10:00,
2013-02-23 17:15:00,33.4,27.9,29.86,West,270,1.0,3.0,80,0.00,,,0.06,Wunderground v.1.15,2013-02-23 22:15:00,
2013-02-23 17:20:00,33.2,27.7,29.86,West,269,1.0,1.0,80,0.00,,,0.06,Wunderground v.1.15,2013-02-23 22:20:00,
2013-02-23 17:25:00,33.1,27.6,29.87,West,269,1.0,3.0,80,0.00,,,0.06,Wunderground v.1.15,2013-02-23 22:25:00,
2013-02-23 17:30:00,33.0,27.5,29.87,WNW,296,1.0,1.0,80,0.00,,,0.06,Wunderground v.1.15,2013-02-23 22:30:00,
2013-02-23 17:40:00,32.7,27.2,29.87,West,266,2.0,8.0,80,0.00,,,0.06,Wunderground v.1.15,2013-02-23 22:40:00,
2013-02-23 17:45:00,32.6,27.4,29.87,West,277,1.0,8.0,81,0.00,,,0.06,Wunderground v.1.15,2013-02-23 22:45:00,
2013-02-23 17:50:00,32.5,27.3,29.87,WNW,288,1.0,8.0,81,0.00,,,0.06,Wunderground v.1.15,2013-02-23 22:50:00,
2013-02-23 17:55:00,32.4,27.2,29.87,West,263,2.0,8.0,81,0.00,,,0.06,Wunderground v.1.15,2013-02-23 22:55:00,
2013-02-23 18:00:00,32.4,27.2,29.87,West,263,1.0,8.0,81,0.00,,,0.06,Wunderground v.1.15,2013-02-23 23:00:00,
2013-02-23 18:05:00,32.3,27.1,29.87,West,264,1.0,8.0,81,0.00,,,0.06,Wunderground v.1.15,2013-02-23 23:05:00,
2013-02-23 18:10:00,32.2,27.0,29.87,West,261,1.0,8.0,81,0.00,,,0.06,Wunderground v.1.15,2013-02-23 23:10:00,
2013-02-23 18:20:00,32.0,26.8,29.87,West,259,1.0,8.0,81,0.00,,,0.06,Wunderground v.1.15,2013-02-23 23:20:00,
2013-02-23 18:25:00,32.0,26.8,29.87,West,261,1.0,8.0,81,0.00,,,0.06,Wunderground v.1.15,2013-02-23 23:25:00,
2013-02-23 18:30:00,31.9,26.7,29.86,West,261,0.0,8.0,81,0.00,,,0.06,Wunderground v.1.15,2013-02-23 23:30:00,
2013-02-23 18:35:00,31.9,26.7,29.87,WNW,282,1.0,8.0,81,0.00,,,0.06,Wunderground v.1.15,2013-02-23 23:35:00,
2013-02-23 18:40:00,31.8,26.6,29.87,West,274,1.0,8.0,81,0.00,,,0.06,Wunderground v.1.15,2013-02-23 23:40:00,
2013-02-23 18:45:00,31.7,26.5,29.87,West,279,2.0,8.0,81,0.00,,,0.06,Wunderground v.1.15,2013-02-23 23:45:00,
2013-02-23 18:50:00,31.6,26.1,29.88,WSW,250,2.0,2.0,80,0.00,,,0.06,Wunderground v.1.15,2013-02-23 23:50:00,
2013-02-23 18:59:00,31.5,25.7,29.88,West,264,2.0,2.0,79,0.00,,,0.06,Wunderground v.1.15,2013-02-23 23:59:00,
2013-02-23 19:05:00,31.4,25.6,29.89,WNW,285,2.0,5.0,79,0.00,,,0.06,Wunderground v.1.15,2013-02-24 00:05:00,
2013-02-23 19:10:00,31.4,25.6,29.89,West,278,2.0,8.0,79,0.00,,,0.06,Wunderground v.1.15,2013-02-24 00:10:00,
2013-02-23 19:15:00,31.4,25.3,29.90,West,263,1.0,8.0,78,0.00,,,0.06,Wunderground v.1.15,2013-02-24 00:15:00,
2013-02-23 19:20:00,31.4,25.3,29.90,West,265,1.0,1.0,78,0.00,,,0.06,Wunderground v.1.15,2013-02-24 00:20:00,
2013-02-23 19:25:00,31.4,25.6,29.90,West,265,1.0,8.0,79,0.00,,,0.06,Wunderground v.1.15,2013-02-24 00:25:00,
2013-02-23 19:30:00,31.3,25.2,29.90,WSW,248,1.0,1.0,78,0.00,,,0.06,Wunderground v.1.15,2013-02-24 00:30:00,
2013-02-23 19:35:00,31.3,25.2,29.90,WSW,237,1.0,8.0,78,0.00,,,0.06,Wunderground v.1.15,2013-02-24 00:35:00,
2013-02-23 19:45:00,31.2,25.1,29.89,West,268,1.0,8.0,78,0.00,,,0.06,Wunderground v.1.15,2013-02-24 00:45:00,
2013-02-23 19:50:00,31.2,25.1,29.89,West,262,1.0,1.0,78,0.00,,,0.06,Wunderground v.1.15,2013-02-24 00:50:00,
2013-02-23 19:55:00,31.1,25.0,29.89,West,263,2.0,3.0,78,0.00,,,0.06,Wunderground v.1.15,2013-02-24 00:55:00,
2013-02-23 20:00:00,31.2,25.1,29.89,West,263,1.0,1.0,78,0.00,,,0.06,Wunderground v.1.15,2013-02-24 01:00:00,
2013-02-23 20:05:00,31.2,25.1,29.89,West,263,0.0,8.0,78,0.00,,,0.06,Wunderground v.1.15,2013-02-24 01:05:00,
2013-02-23 20:10:00,31.1,25.3,29.89,WSW,258,1.0,1.0,79,0.00,,,0.06,Wunderground v.1.15,2013-02-24 01:10:00,
2013-02-23 20:15:00,31.1,25.3,29.89,West,266,2.0,2.0,79,0.00,,,0.06,Wunderground v.1.15,2013-02-24 01:15:00,
2013-02-23 20:25:00,31.0,25.2,29.89,West,271,1.0,8.0,79,0.00,,,0.06,Wunderground v.1.15,2013-02-24 01:25:00,
2013-02-23 20:30:00,31.0,25.2,29.89,SW,235,1.0,8.0,79,0.00,,,0.06,Wunderground v.1.15,2013-02-24 01:30:00,
2013-02-23 20:35:00,31.0,25.2,29.89,West,263,1.0,8.0,79,0.00,,,0.06,Wunderground v.1.15,2013-02-24 01:35:00,
2013-02-23 20:40:00,31.0,25.2,29.89,West,267,1.0,1.0,79,0.00,,,0.06,Wunderground v.1.15,2013-02-24 01:40:00,
2013-02-23 20:45:00,31.0,25.2,29.89,West,267,0.0,8.0,79,0.00,,,0.06,Wunderground v.1.15,2013-02-24 01:45:00,
2013-02-23 20:50:00,30.9,25.2,29.89,West,259,1.0,1.0,79,0.00,,,0.06,Wunderground v.1.15,2013-02-24 01:50:00,
2013-02-23 20:59:00,30.9,24.8,29.89,WSW,241,1.0,8.0,78,0.00,,,0.06,Wunderground v.1.15,2013-02-24 01:59:00,
2013-02-23 21:05:00,30.9,24.8,29.89,WSW,248,1.0,8.0,78,0.00,,,0.06,Wunderground v.1.15,2013-02-24 02:05:00,
2013-02-23 21:10:00,30.9,24.8,29.89,SW,225,0.0,8.0,78,0.00,,,0.06,Wunderground v.1.15,2013-02-24 02:10:00,
2013-02-23 21:15:00,30.9,24.8,29.89,SW,225,0.0,8.0,78,0.00,,,0.06,Wunderground v.1.15,2013-02-24 02:15:00,
2013-02-23 21:20:00,30.9,24.8,29.89,SW,221,0.0,8.0,78,0.00,,,0.06,Wunderground v.1.15,2013-02-24 02:20:00,
2013-02-23 21:25:00,30.9,24.8,29.89,SW,221,1.0,8.0,78,0.00,,,0.06,Wunderground v.1.15,2013-02-24 02:25:00,
2013-02-23 21:30:00,30.9,24.5,29.89,SW,221,1.0,1.0,77,0.00,,,0.06,Wunderground v.1.15,2013-02-24 02:30:00,
2013-02-23 21:40:00,30.8,24.4,29.88,SW,223,0.0,8.0,77,0.00,,,0.06,Wunderground v.1.15,2013-02-24 02:40:00,
2013-02-23 21:45:00,30.8,24.4,29.88,SW,223,0.0,8.0,77,0.00,,,0.06,Wunderground v.1.15,2013-02-24 02:45:00,
2013-02-23 21:50:00,30.8,24.4,29.88,SW,223,0.0,8.0,77,0.00,,,0.06,Wunderground v.1.15,2013-02-24 02:50:00,
2013-02-23 21:55:00,30.8,24.4,29.88,SW,225,0.0,8.0,77,0.00,,,0.06,Wunderground v.1.15,2013-02-24 02:55:00,
2013-02-23 22:00:00,30.9,24.2,29.88,West,271,1.0,1.0,76,0.00,,,0.06,Wunderground v.1.15,2013-02-24 03:00:00,
2013-02-23 22:05:00,30.9,24.2,29.88,WSW,241,1.0,2.0,76,0.00,,,0.06,Wunderground v.1.15,2013-02-24 03:05:00,
2013-02-23 22:10:00,30.9,24.2,29.88,WSW,241,1.0,8.0,76,0.00,,,0.06,Wunderground v.1.15,2013-02-24 03:10:00,
2013-02-23 22:20:00,30.9,24.2,29.88,WSW,244,0.0,8.0,76,0.00,,,0.06,Wunderground v.1.15,2013-02-24 03:20:00,
2013-02-23 22:25:00,30.8,23.8,29.88,WSW,245,1.0,8.0,75,0.00,,,0.06,Wunderground v.1.15,2013-02-24 03:25:00,
2013-02-23 22:30:00,30.8,23.8,29.87,SW,235,0.0,8.0,75,0.00,,,0.06,Wunderground v.1.15,2013-02-24 03:30:00,
2013-02-23 22:35:00,30.8,23.8,29.87,SW,235,0.0,8.0,75,0.00,,,0.06,Wunderground v.1.15,2013-02-24 03:35:00,
2013-02-23 22:45:00,30.7,24.0,29.87,SW,235,0.0,8.0,76,0.00,,,0.06,Wunderground v.1.15,2013-02-24 03:45:00,
2013-02-23 22:50:00,30.6,23.6,29.87,SW,235,0.0,8.0,75,0.00,,,0.06,Wunderground v.1.15,2013-02-24 03:50:00,
2013-02-23 22:55:00,30.6,23.6,29.87,SW,234,0.0,8.0,75,0.00,,,0.06,Wunderground v.1.15,2013-02-24 03:55:00,
2013-02-23 23:00:00,30.6,23.6,29.86,SW,234,0.0,8.0,75,0.00,,,0.06,Wunderground v.1.15,2013-02-24 04:00:00,
2013-02-23 23:05:00,30.6,23.6,29.86,SW,234,0.0,8.0,75,0.00,,,0.06,Wunderground v.1.15,2013-02-24 04:05:00,
2013-02-23 23:10:00,30.6,23.6,29.86,SW,235,0.0,8.0,75,0.00,,,0.06,Wunderground v.1.15,2013-02-24 04:10:00,
2013-02-23 23:15:00,30.6,23.6,29.86,SW,235,0.0,8.0,75,0.00,,,0.06,Wunderground v.1.15,2013-02-24 04:15:00,
2013-02-23 23:25:00,30.5,23.8,29.86,SW,235,0.0,8.0,76,0.00,,,0.06,Wunderground v.1.15,2013-02-24 04:25:00,
2013-02-23 23:30:00,30.5,23.8,29.86,SW,235,0.0,8.0,76,0.00,,,0.06,Wunderground v.1.15,2013-02-24 04:30:00,
2013-02-23 23:35:00,30.4,23.7,29.86,SW,236,0.0,8.0,76,0.00,,,0.06,Wunderground v.1.15,2013-02-24 04:35:00,
2013-02-23 23:40:00,30.4,23.7,29.86,SW,236,0.0,8.0,76,0.00,,,0.06,Wunderground v.1.15,2013-02-24 04:40:00,
2013-02-23 23:45:00,30.5,23.8,29.86,SW,236,0.0,8.0,76,0.00,,,0.06,Wunderground v.1.15,2013-02-24 04:45:00,
2013-02-23 23:50:00,30.4,23.7,29.86,SW,236,0.0,8.0,76,0.00,,,0.06,Wunderground v.1.15,2013-02-24 04:50:00,